sensor_id;sensor_type;location;lat;lon;timestamp;P1;durP1;ratioP1;P2;durP2;ratioP2
46613;SDS011;32338;50.430;6.806;2023-06-26T00:00:44;5.05;;;4.53;;
46613;SDS011;32338;50.430;6.806;2023-06-26T00:03:12;5.47;;;4.53;;
46613;SDS011;32338;50.430;6.806;2023-06-26T00:05:40;4.68;;;4.30;;
46613;SDS011;32338;50.430;6.806;2023-06-26T00:08:06;4.80;;;4.40;;
46613;SDS011;32338;50.430;6.806;2023-06-26T00:10:33;5.03;;;4.50;;
46613;SDS011;32338;50.430;6.806;2023-06-26T00:13:01;5.65;;;4.90;;
46613;SDS011;32338;50.430;6.806;2023-06-26T00:15:28;4.97;;;4.53;;
46613;SDS011;32338;50.430;6.806;2023-06-26T00:17:56;5.45;;;4.85;;
46613;SDS011;32338;50.430;6.806;2023-06-26T00:20:23;4.90;;;4.53;;
46613;SDS011;32338;50.430;6.806;2023-06-26T00:22:50;4.55;;;4.15;;
46613;SDS011;32338;50.430;6.806;2023-06-26T00:25:16;5.03;;;4.60;;
46613;SDS011;32338;50.430;6.806;2023-06-26T00:27:43;5.05;;;4.55;;
46613;SDS011;32338;50.430;6.806;2023-06-26T00:30:11;6.32;;;4.68;;
46613;SDS011;32338;50.430;6.806;2023-06-26T00:32:38;4.93;;;4.22;;
46613;SDS011;32338;50.430;6.806;2023-06-26T00:35:05;6.65;;;5.00;;
46613;SDS011;32338;50.430;6.806;2023-06-26T00:37:31;5.13;;;4.60;;
46613;SDS011;32338;50.430;6.806;2023-06-26T00:39:58;7.65;;;5.20;;
46613;SDS011;32338;50.430;6.806;2023-06-26T00:42:24;5.45;;;4.60;;
46613;SDS011;32338;50.430;6.806;2023-06-26T00:44:51;5.03;;;4.63;;
46613;SDS011;32338;50.430;6.806;2023-06-26T00:47:19;5.68;;;5.03;;
46613;SDS011;32338;50.430;6.806;2023-06-26T00:49:45;10.10;;;4.88;;
46613;SDS011;32338;50.430;6.806;2023-06-26T00:52:12;6.32;;;4.88;;
46613;SDS011;32338;50.430;6.806;2023-06-26T00:54:39;5.20;;;4.53;;
46613;SDS011;32338;50.430;6.806;2023-06-26T00:57:06;4.90;;;4.53;;
46613;SDS011;32338;50.430;6.806;2023-06-26T00:59:32;4.95;;;4.55;;
46613;SDS011;32338;50.430;6.806;2023-06-26T01:01:59;5.68;;;4.75;;
46613;SDS011;32338;50.430;6.806;2023-06-26T01:04:27;5.53;;;5.10;;
46613;SDS011;32338;50.430;6.806;2023-06-26T01:06:57;5.38;;;4.97;;
46613;SDS011;32338;50.430;6.806;2023-06-26T01:09:25;5.38;;;4.97;;
46613;SDS011;32338;50.430;6.806;2023-06-26T01:11:52;6.20;;;4.60;;
46613;SDS011;32338;50.430;6.806;2023-06-26T01:14:19;5.35;;;4.95;;
46613;SDS011;32338;50.430;6.806;2023-06-26T01:16:46;5.43;;;4.72;;
46613;SDS011;32338;50.430;6.806;2023-06-26T01:19:13;5.70;;;4.57;;
46613;SDS011;32338;50.430;6.806;2023-06-26T01:21:53;5.35;;;4.85;;
46613;SDS011;32338;50.430;6.806;2023-06-26T01:24:24;5.45;;;4.85;;
46613;SDS011;32338;50.430;6.806;2023-06-26T01:26:55;6.43;;;5.00;;
46613;SDS011;32338;50.430;6.806;2023-06-26T01:29:24;5.32;;;4.85;;
46613;SDS011;32338;50.430;6.806;2023-06-26T01:31:51;5.45;;;4.15;;
46613;SDS011;32338;50.430;6.806;2023-06-26T01:34:18;4.70;;;4.30;;
46613;SDS011;32338;50.430;6.806;2023-06-26T01:36:45;4.80;;;4.30;;
46613;SDS011;32338;50.430;6.806;2023-06-26T01:39:14;5.63;;;4.65;;
46613;SDS011;32338;50.430;6.806;2023-06-26T01:41:42;6.35;;;4.60;;
46613;SDS011;32338;50.430;6.806;2023-06-26T01:44:14;5.13;;;4.75;;
46613;SDS011;32338;50.430;6.806;2023-06-26T01:46:54;5.32;;;4.82;;
46613;SDS011;32338;50.430;6.806;2023-06-26T01:49:28;5.00;;;4.60;;
46613;SDS011;32338;50.430;6.806;2023-06-26T01:52:00;5.10;;;4.65;;
46613;SDS011;32338;50.430;6.806;2023-06-26T01:54:33;5.20;;;4.72;;
46613;SDS011;32338;50.430;6.806;2023-06-26T01:57:05;5.13;;;4.72;;
46613;SDS011;32338;50.430;6.806;2023-06-26T01:59:36;4.80;;;4.40;;
46613;SDS011;32338;50.430;6.806;2023-06-26T02:02:06;5.45;;;4.50;;
46613;SDS011;32338;50.430;6.806;2023-06-26T02:04:33;7.75;;;5.28;;
46613;SDS011;32338;50.430;6.806;2023-06-26T02:07:00;5.43;;;5.03;;
46613;SDS011;32338;50.430;6.806;2023-06-26T02:09:26;5.75;;;4.60;;
46613;SDS011;32338;50.430;6.806;2023-06-26T02:11:53;5.22;;;4.80;;
46613;SDS011;32338;50.430;6.806;2023-06-26T02:14:20;5.43;;;4.97;;
46613;SDS011;32338;50.430;6.806;2023-06-26T02:16:47;5.50;;;4.38;;
46613;SDS011;32338;50.430;6.806;2023-06-26T02:19:14;6.78;;;4.93;;
46613;SDS011;32338;50.430;6.806;2023-06-26T02:21:46;5.80;;;5.32;;
46613;SDS011;32338;50.430;6.806;2023-06-26T02:24:13;5.43;;;5.03;;
46613;SDS011;32338;50.430;6.806;2023-06-26T02:26:39;5.85;;;5.35;;
46613;SDS011;32338;50.430;6.806;2023-06-26T02:29:06;5.32;;;4.93;;
46613;SDS011;32338;50.430;6.806;2023-06-26T02:31:32;5.32;;;4.72;;
46613;SDS011;32338;50.430;6.806;2023-06-26T02:34:00;4.85;;;4.47;;
46613;SDS011;32338;50.430;6.806;2023-06-26T02:36:27;4.82;;;4.43;;
46613;SDS011;32338;50.430;6.806;2023-06-26T02:38:53;5.50;;;5.07;;
46613;SDS011;32338;50.430;6.806;2023-06-26T02:41:20;6.40;;;4.90;;
46613;SDS011;32338;50.430;6.806;2023-06-26T02:43:47;5.35;;;4.85;;
46613;SDS011;32338;50.430;6.806;2023-06-26T02:46:13;4.93;;;4.53;;
46613;SDS011;32338;50.430;6.806;2023-06-26T02:48:40;5.35;;;4.93;;
46613;SDS011;32338;50.430;6.806;2023-06-26T02:51:08;5.07;;;4.68;;
46613;SDS011;32338;50.430;6.806;2023-06-26T02:53:34;5.38;;;5.00;;
46613;SDS011;32338;50.430;6.806;2023-06-26T02:56:01;5.72;;;5.22;;
46613;SDS011;32338;50.430;6.806;2023-06-26T02:58:27;5.05;;;4.75;;
46613;SDS011;32338;50.430;6.806;2023-06-26T03:00:54;5.22;;;4.82;;
46613;SDS011;32338;50.430;6.806;2023-06-26T03:03:21;5.13;;;4.82;;
46613;SDS011;32338;50.430;6.806;2023-06-26T03:05:48;5.50;;;5.10;;
46613;SDS011;32338;50.430;6.806;2023-06-26T03:08:16;5.30;;;4.78;;
46613;SDS011;32338;50.430;6.806;2023-06-26T03:10:42;5.53;;;4.95;;
46613;SDS011;32338;50.430;6.806;2023-06-26T03:13:09;7.35;;;5.80;;
46613;SDS011;32338;50.430;6.806;2023-06-26T03:15:35;5.97;;;5.15;;
46613;SDS011;32338;50.430;6.806;2023-06-26T03:18:02;5.38;;;4.97;;
46613;SDS011;32338;50.430;6.806;2023-06-26T03:20:29;8.10;;;5.03;;
46613;SDS011;32338;50.430;6.806;2023-06-26T03:22:55;6.07;;;5.40;;
46613;SDS011;32338;50.430;6.806;2023-06-26T03:25:23;5.38;;;4.97;;
46613;SDS011;32338;50.430;6.806;2023-06-26T03:27:50;5.75;;;5.28;;
46613;SDS011;32338;50.430;6.806;2023-06-26T03:30:16;5.63;;;5.13;;
46613;SDS011;32338;50.430;6.806;2023-06-26T03:32:43;5.60;;;5.20;;
46613;SDS011;32338;50.430;6.806;2023-06-26T03:35:09;5.65;;;4.82;;
46613;SDS011;32338;50.430;6.806;2023-06-26T03:37:36;5.80;;;5.35;;
46613;SDS011;32338;50.430;6.806;2023-06-26T03:40:03;5.78;;;5.38;;
46613;SDS011;32338;50.430;6.806;2023-06-26T03:42:32;7.55;;;6.47;;
46613;SDS011;32338;50.430;6.806;2023-06-26T03:44:58;6.35;;;5.72;;
46613;SDS011;32338;50.430;6.806;2023-06-26T03:47:25;6.72;;;6.22;;
46613;SDS011;32338;50.430;6.806;2023-06-26T03:49:51;6.30;;;5.82;;
46613;SDS011;32338;50.430;6.806;2023-06-26T03:52:18;7.30;;;6.68;;
46613;SDS011;32338;50.430;6.806;2023-06-26T03:54:44;7.20;;;6.28;;
46613;SDS011;32338;50.430;6.806;2023-06-26T03:57:11;7.18;;;6.47;;
46613;SDS011;32338;50.430;6.806;2023-06-26T03:59:39;6.85;;;6.10;;
46613;SDS011;32338;50.430;6.806;2023-06-26T04:02:06;10.40;;;6.00;;
46613;SDS011;32338;50.430;6.806;2023-06-26T04:04:32;6.68;;;6.07;;
46613;SDS011;32338;50.430;6.806;2023-06-26T04:06:59;6.63;;;5.90;;
46613;SDS011;32338;50.430;6.806;2023-06-26T04:09:25;7.78;;;6.55;;
46613;SDS011;32338;50.430;6.806;2023-06-26T04:11:52;7.07;;;6.35;;
46613;SDS011;32338;50.430;6.806;2023-06-26T04:14:19;6.53;;;5.68;;
46613;SDS011;32338;50.430;6.806;2023-06-26T04:16:47;6.68;;;6.18;;
46613;SDS011;32338;50.430;6.806;2023-06-26T04:19:13;6.82;;;6.13;;
46613;SDS011;32338;50.430;6.806;2023-06-26T04:21:40;7.50;;;6.35;;
46613;SDS011;32338;50.430;6.806;2023-06-26T04:24:07;6.60;;;5.80;;
46613;SDS011;32338;50.430;6.806;2023-06-26T04:26:34;7.80;;;7.05;;
46613;SDS011;32338;50.430;6.806;2023-06-26T04:29:00;7.25;;;6.65;;
46613;SDS011;32338;50.430;6.806;2023-06-26T04:31:28;7.57;;;6.93;;
46613;SDS011;32338;50.430;6.806;2023-06-26T04:33:56;7.70;;;6.57;;
46613;SDS011;32338;50.430;6.806;2023-06-26T04:36:24;7.70;;;6.32;;
46613;SDS011;32338;50.430;6.806;2023-06-26T04:38:53;7.05;;;6.45;;
46613;SDS011;32338;50.430;6.806;2023-06-26T04:41:20;8.50;;;6.70;;
46613;SDS011;32338;50.430;6.806;2023-06-26T04:43:47;7.40;;;6.85;;
46613;SDS011;32338;50.430;6.806;2023-06-26T04:46:13;7.47;;;6.70;;
46613;SDS011;32338;50.430;6.806;2023-06-26T04:48:40;6.25;;;5.60;;
46613;SDS011;32338;50.430;6.806;2023-06-26T04:51:08;6.75;;;6.05;;
46613;SDS011;32338;50.430;6.806;2023-06-26T04:53:34;6.75;;;6.10;;
46613;SDS011;32338;50.430;6.806;2023-06-26T04:56:01;7.72;;;7.13;;
46613;SDS011;32338;50.430;6.806;2023-06-26T04:58:27;8.13;;;6.70;;
46613;SDS011;32338;50.430;6.806;2023-06-26T05:00:54;7.38;;;6.50;;
46613;SDS011;32338;50.430;6.806;2023-06-26T05:03:21;6.95;;;6.32;;
46613;SDS011;32338;50.430;6.806;2023-06-26T05:05:48;8.35;;;6.35;;
46613;SDS011;32338;50.430;6.806;2023-06-26T05:08:18;6.85;;;6.35;;
46613;SDS011;32338;50.430;6.806;2023-06-26T05:10:47;7.35;;;6.65;;
46613;SDS011;32338;50.430;6.806;2023-06-26T05:13:13;7.32;;;6.63;;
46613;SDS011;32338;50.430;6.806;2023-06-26T05:15:42;6.80;;;6.22;;
46613;SDS011;32338;50.430;6.806;2023-06-26T05:18:09;7.55;;;6.70;;
46613;SDS011;32338;50.430;6.806;2023-06-26T05:20:36;6.68;;;6.10;;
46613;SDS011;32338;50.430;6.806;2023-06-26T05:23:03;7.07;;;6.47;;
46613;SDS011;32338;50.430;6.806;2023-06-26T05:25:32;7.18;;;6.55;;
46613;SDS011;32338;50.430;6.806;2023-06-26T05:28:00;6.90;;;6.28;;
46613;SDS011;32338;50.430;6.806;2023-06-26T05:30:27;7.00;;;6.40;;
46613;SDS011;32338;50.430;6.806;2023-06-26T05:32:56;8.27;;;6.70;;
46613;SDS011;32338;50.430;6.806;2023-06-26T05:35:23;18.25;;;6.55;;
46613;SDS011;32338;50.430;6.806;2023-06-26T05:37:54;7.03;;;6.43;;
46613;SDS011;32338;50.430;6.806;2023-06-26T05:40:22;6.35;;;5.70;;
46613;SDS011;32338;50.430;6.806;2023-06-26T05:42:50;7.32;;;6.65;;
46613;SDS011;32338;50.430;6.806;2023-06-26T05:45:17;7.00;;;6.22;;
46613;SDS011;32338;50.430;6.806;2023-06-26T05:47:44;7.03;;;6.30;;
46613;SDS011;32338;50.430;6.806;2023-06-26T05:50:12;6.85;;;6.03;;
46613;SDS011;32338;50.430;6.806;2023-06-26T05:52:39;6.93;;;6.43;;
46613;SDS011;32338;50.430;6.806;2023-06-26T05:55:07;6.82;;;6.20;;
46613;SDS011;32338;50.430;6.806;2023-06-26T05:57:35;7.95;;;6.10;;
46613;SDS011;32338;50.430;6.806;2023-06-26T06:00:06;6.72;;;6.22;;
46613;SDS011;32338;50.430;6.806;2023-06-26T06:02:35;6.80;;;6.20;;
46613;SDS011;32338;50.430;6.806;2023-06-26T06:05:02;5.80;;;5.32;;
46613;SDS011;32338;50.430;6.806;2023-06-26T06:07:30;6.85;;;6.35;;
46613;SDS011;32338;50.430;6.806;2023-06-26T06:09:57;5.88;;;5.47;;
46613;SDS011;32338;50.430;6.806;2023-06-26T06:12:24;6.72;;;6.13;;
46613;SDS011;32338;50.430;6.806;2023-06-26T06:14:50;6.32;;;5.78;;
46613;SDS011;32338;50.430;6.806;2023-06-26T06:17:19;6.30;;;5.80;;
46613;SDS011;32338;50.430;6.806;2023-06-26T06:19:46;6.07;;;5.47;;
46613;SDS011;32338;50.430;6.806;2023-06-26T06:22:12;6.63;;;6.03;;
46613;SDS011;32338;50.430;6.806;2023-06-26T06:24:39;6.97;;;6.38;;
46613;SDS011;32338;50.430;6.806;2023-06-26T06:27:06;5.53;;;5.13;;
46613;SDS011;32338;50.430;6.806;2023-06-26T06:29:33;6.47;;;5.97;;
46613;SDS011;32338;50.430;6.806;2023-06-26T06:32:00;6.55;;;6.05;;
46613;SDS011;32338;50.430;6.806;2023-06-26T06:34:28;6.18;;;5.57;;
46613;SDS011;32338;50.430;6.806;2023-06-26T06:36:54;6.32;;;5.57;;
46613;SDS011;32338;50.430;6.806;2023-06-26T06:39:21;6.25;;;5.65;;
46613;SDS011;32338;50.430;6.806;2023-06-26T06:41:48;6.72;;;6.13;;
46613;SDS011;32338;50.430;6.806;2023-06-26T06:44:15;6.28;;;5.70;;
46613;SDS011;32338;50.430;6.806;2023-06-26T06:46:41;7.47;;;5.00;;
46613;SDS011;32338;50.430;6.806;2023-06-26T06:49:08;5.07;;;4.32;;
46613;SDS011;32338;50.430;6.806;2023-06-26T06:51:36;4.88;;;3.30;;
46613;SDS011;32338;50.430;6.806;2023-06-26T06:54:06;4.15;;;3.05;;
46613;SDS011;32338;50.430;6.806;2023-06-26T06:56:33;4.95;;;3.03;;
46613;SDS011;32338;50.430;6.806;2023-06-26T06:58:59;4.88;;;3.55;;
46613;SDS011;32338;50.430;6.806;2023-06-26T07:01:26;4.65;;;3.95;;
46613;SDS011;32338;50.430;6.806;2023-06-26T07:03:53;6.18;;;3.97;;
46613;SDS011;32338;50.430;6.806;2023-06-26T07:06:19;3.58;;;3.10;;
46613;SDS011;32338;50.430;6.806;2023-06-26T07:08:47;3.45;;;3.15;;
46613;SDS011;32338;50.430;6.806;2023-06-26T07:11:15;3.55;;;3.03;;
46613;SDS011;32338;50.430;6.806;2023-06-26T07:13:41;4.38;;;2.78;;
46613;SDS011;32338;50.430;6.806;2023-06-26T07:16:08;4.25;;;2.90;;
46613;SDS011;32338;50.430;6.806;2023-06-26T07:18:37;3.92;;;2.80;;
46613;SDS011;32338;50.430;6.806;2023-06-26T07:21:06;6.70;;;2.97;;
46613;SDS011;32338;50.430;6.806;2023-06-26T07:23:33;4.57;;;2.53;;
46613;SDS011;32338;50.430;6.806;2023-06-26T07:26:01;3.28;;;2.90;;
46613;SDS011;32338;50.430;6.806;2023-06-26T07:28:28;5.05;;;2.63;;
46613;SDS011;32338;50.430;6.806;2023-06-26T07:30:55;3.75;;;2.42;;
46613;SDS011;32338;50.430;6.806;2023-06-26T07:33:22;3.95;;;2.60;;
46613;SDS011;32338;50.430;6.806;2023-06-26T07:35:48;3.50;;;2.38;;
46613;SDS011;32338;50.430;6.806;2023-06-26T07:38:15;5.47;;;2.17;;
46613;SDS011;32338;50.430;6.806;2023-06-26T07:40:42;2.90;;;2.40;;
46613;SDS011;32338;50.430;6.806;2023-06-26T07:43:10;2.50;;;2.30;;
46613;SDS011;32338;50.430;6.806;2023-06-26T07:45:37;2.95;;;2.20;;
46613;SDS011;32338;50.430;6.806;2023-06-26T07:48:05;3.08;;;2.00;;
46613;SDS011;32338;50.430;6.806;2023-06-26T07:50:34;3.13;;;2.10;;
46613;SDS011;32338;50.430;6.806;2023-06-26T07:53:00;3.08;;;2.38;;
46613;SDS011;32338;50.430;6.806;2023-06-26T07:55:27;5.20;;;2.10;;
46613;SDS011;32338;50.430;6.806;2023-06-26T07:57:54;4.45;;;2.17;;
46613;SDS011;32338;50.430;6.806;2023-06-26T08:00:23;2.20;;;2.00;;
46613;SDS011;32338;50.430;6.806;2023-06-26T08:02:50;2.13;;;1.92;;
46613;SDS011;32338;50.430;6.806;2023-06-26T08:05:16;5.40;;;2.22;;
46613;SDS011;32338;50.430;6.806;2023-06-26T08:07:43;3.70;;;2.00;;
46613;SDS011;32338;50.430;6.806;2023-06-26T08:10:10;6.07;;;2.20;;
46613;SDS011;32338;50.430;6.806;2023-06-26T08:12:37;3.33;;;2.33;;
46613;SDS011;32338;50.430;6.806;2023-06-26T08:15:06;4.05;;;2.30;;
46613;SDS011;32338;50.430;6.806;2023-06-26T08:17:38;3.60;;;2.60;;
46613;SDS011;32338;50.430;6.806;2023-06-26T08:20:08;2.65;;;2.40;;
46613;SDS011;32338;50.430;6.806;2023-06-26T08:22:35;4.35;;;2.55;;
46613;SDS011;32338;50.430;6.806;2023-06-26T08:25:02;3.67;;;2.67;;
46613;SDS011;32338;50.430;6.806;2023-06-26T08:27:30;5.22;;;2.88;;
46613;SDS011;32338;50.430;6.806;2023-06-26T08:29:58;5.60;;;2.60;;
46613;SDS011;32338;50.430;6.806;2023-06-26T08:32:24;2.60;;;2.05;;
46613;SDS011;32338;50.430;6.806;2023-06-26T08:34:55;2.60;;;2.38;;
46613;SDS011;32338;50.430;6.806;2023-06-26T08:37:22;4.90;;;3.00;;
46613;SDS011;32338;50.430;6.806;2023-06-26T08:39:49;2.92;;;2.03;;
46613;SDS011;32338;50.430;6.806;2023-06-26T08:42:16;3.35;;;2.50;;
46613;SDS011;32338;50.430;6.806;2023-06-26T08:44:44;4.13;;;2.03;;
46613;SDS011;32338;50.430;6.806;2023-06-26T08:47:11;5.07;;;2.47;;
46613;SDS011;32338;50.430;6.806;2023-06-26T08:49:42;5.18;;;2.85;;
46613;SDS011;32338;50.430;6.806;2023-06-26T08:52:17;5.35;;;2.72;;
46613;SDS011;32338;50.430;6.806;2023-06-26T08:54:46;9.90;;;2.83;;
46613;SDS011;32338;50.430;6.806;2023-06-26T08:57:21;4.85;;;2.80;;
46613;SDS011;32338;50.430;6.806;2023-06-26T08:59:49;3.83;;;2.40;;
46613;SDS011;32338;50.430;6.806;2023-06-26T09:02:16;4.90;;;2.70;;
46613;SDS011;32338;50.430;6.806;2023-06-26T09:04:46;3.88;;;2.40;;
46613;SDS011;32338;50.430;6.806;2023-06-26T09:07:15;3.70;;;2.58;;
46613;SDS011;32338;50.430;6.806;2023-06-26T09:09:42;7.72;;;2.80;;
46613;SDS011;32338;50.430;6.806;2023-06-26T09:12:09;3.70;;;2.80;;
46613;SDS011;32338;50.430;6.806;2023-06-26T09:14:36;4.20;;;2.55;;
46613;SDS011;32338;50.430;6.806;2023-06-26T09:17:03;8.82;;;2.38;;
46613;SDS011;32338;50.430;6.806;2023-06-26T09:19:33;4.85;;;2.45;;
46613;SDS011;32338;50.430;6.806;2023-06-26T09:22:03;4.85;;;2.67;;
46613;SDS011;32338;50.430;6.806;2023-06-26T09:24:34;8.30;;;2.75;;
46613;SDS011;32338;50.430;6.806;2023-06-26T09:27:00;6.60;;;2.65;;
46613;SDS011;32338;50.430;6.806;2023-06-26T09:29:28;5.07;;;2.40;;
46613;SDS011;32338;50.430;6.806;2023-06-26T09:31:55;3.65;;;1.90;;
46613;SDS011;32338;50.430;6.806;2023-06-26T09:34:22;4.15;;;2.10;;
46613;SDS011;32338;50.430;6.806;2023-06-26T09:36:57;4.72;;;1.90;;
46613;SDS011;32338;50.430;6.806;2023-06-26T09:39:24;6.25;;;2.10;;
46613;SDS011;32338;50.430;6.806;2023-06-26T09:41:52;4.88;;;1.73;;
46613;SDS011;32338;50.430;6.806;2023-06-26T09:44:21;5.28;;;2.00;;
46613;SDS011;32338;50.430;6.806;2023-06-26T09:46:48;4.35;;;1.80;;
46613;SDS011;32338;50.430;6.806;2023-06-26T09:49:15;4.18;;;1.73;;
46613;SDS011;32338;50.430;6.806;2023-06-26T09:51:42;4.07;;;1.80;;
46613;SDS011;32338;50.430;6.806;2023-06-26T09:54:09;5.28;;;1.83;;
46613;SDS011;32338;50.430;6.806;2023-06-26T09:56:36;6.75;;;2.22;;
46613;SDS011;32338;50.430;6.806;2023-06-26T09:59:05;8.70;;;1.50;;
46613;SDS011;32338;50.430;6.806;2023-06-26T10:01:32;4.45;;;1.60;;
46613;SDS011;32338;50.430;6.806;2023-06-26T10:04:00;4.85;;;1.60;;
46613;SDS011;32338;50.430;6.806;2023-06-26T10:06:27;4.28;;;1.60;;
46613;SDS011;32338;50.430;6.806;2023-06-26T10:08:59;3.70;;;1.63;;
46613;SDS011;32338;50.430;6.806;2023-06-26T10:11:32;3.55;;;1.83;;
46613;SDS011;32338;50.430;6.806;2023-06-26T10:14:03;4.90;;;1.55;;
46613;SDS011;32338;50.430;6.806;2023-06-26T10:16:33;2.92;;;1.20;;
46613;SDS011;32338;50.430;6.806;2023-06-26T10:19:04;4.60;;;1.50;;
46613;SDS011;32338;50.430;6.806;2023-06-26T10:21:34;3.75;;;1.50;;
46613;SDS011;32338;50.430;6.806;2023-06-26T10:24:05;5.88;;;1.50;;
46613;SDS011;32338;50.430;6.806;2023-06-26T10:26:33;2.65;;;1.45;;
46613;SDS011;32338;50.430;6.806;2023-06-26T10:29:06;7.28;;;1.90;;
46613;SDS011;32338;50.430;6.806;2023-06-26T10:31:35;3.97;;;1.13;;
46613;SDS011;32338;50.430;6.806;2023-06-26T10:34:03;6.57;;;1.40;;
46613;SDS011;32338;50.430;6.806;2023-06-26T10:36:31;4.18;;;1.40;;
46613;SDS011;32338;50.430;6.806;2023-06-26T10:38:58;9.93;;;1.50;;
46613;SDS011;32338;50.430;6.806;2023-06-26T10:41:35;4.70;;;1.30;;
46613;SDS011;32338;50.430;6.806;2023-06-26T10:44:08;3.78;;;1.30;;
46613;SDS011;32338;50.430;6.806;2023-06-26T10:46:48;2.65;;;1.35;;
46613;SDS011;32338;50.430;6.806;2023-06-26T10:49:18;3.15;;;1.20;;
46613;SDS011;32338;50.430;6.806;2023-06-26T10:51:48;2.45;;;1.15;;
46613;SDS011;32338;50.430;6.806;2023-06-26T10:54:16;2.35;;;0.98;;
46613;SDS011;32338;50.430;6.806;2023-06-26T10:56:44;4.72;;;1.00;;
46613;SDS011;32338;50.430;6.806;2023-06-26T10:59:15;6.43;;;1.17;;
46613;SDS011;32338;50.430;6.806;2023-06-26T11:01:43;2.13;;;0.90;;
46613;SDS011;32338;50.430;6.806;2023-06-26T11:04:11;3.80;;;0.98;;
46613;SDS011;32338;50.430;6.806;2023-06-26T11:06:41;4.93;;;1.20;;
46613;SDS011;32338;50.430;6.806;2023-06-26T11:09:13;5.60;;;1.05;;
46613;SDS011;32338;50.430;6.806;2023-06-26T11:11:57;2.17;;;1.00;;
46613;SDS011;32338;50.430;6.806;2023-06-26T11:14:31;2.90;;;1.20;;
46613;SDS011;32338;50.430;6.806;2023-06-26T11:16:59;3.28;;;1.25;;
46613;SDS011;32338;50.430;6.806;2023-06-26T11:19:29;3.88;;;1.10;;
46613;SDS011;32338;50.430;6.806;2023-06-26T11:21:58;3.78;;;1.00;;
46613;SDS011;32338;50.430;6.806;2023-06-26T11:24:26;6.38;;;1.20;;
46613;SDS011;32338;50.430;6.806;2023-06-26T11:26:54;3.72;;;0.90;;
46613;SDS011;32338;50.430;6.806;2023-06-26T11:29:26;3.30;;;1.20;;
46613;SDS011;32338;50.430;6.806;2023-06-26T11:31:59;4.82;;;1.10;;
46613;SDS011;32338;50.430;6.806;2023-06-26T11:34:31;6.70;;;0.98;;
46613;SDS011;32338;50.430;6.806;2023-06-26T11:36:58;1.70;;;0.88;;
46613;SDS011;32338;50.430;6.806;2023-06-26T11:39:26;4.30;;;1.17;;
46613;SDS011;32338;50.430;6.806;2023-06-26T11:41:53;3.00;;;1.08;;
46613;SDS011;32338;50.430;6.806;2023-06-26T11:44:20;3.10;;;1.00;;
46613;SDS011;32338;50.430;6.806;2023-06-26T11:46:50;2.25;;;0.95;;
46613;SDS011;32338;50.430;6.806;2023-06-26T11:49:21;4.28;;;1.00;;
46613;SDS011;32338;50.430;6.806;2023-06-26T11:51:51;7.45;;;1.17;;
46613;SDS011;32338;50.430;6.806;2023-06-26T11:54:23;4.10;;;0.80;;
46613;SDS011;32338;50.430;6.806;2023-06-26T11:56:57;3.13;;;1.23;;
46613;SDS011;32338;50.430;6.806;2023-06-26T11:59:35;4.45;;;1.30;;
46613;SDS011;32338;50.430;6.806;2023-06-26T12:02:05;8.88;;;1.42;;
46613;SDS011;32338;50.430;6.806;2023-06-26T12:04:34;3.50;;;1.20;;
46613;SDS011;32338;50.430;6.806;2023-06-26T12:07:04;2.83;;;1.38;;
46613;SDS011;32338;50.430;6.806;2023-06-26T12:09:34;6.75;;;1.60;;
46613;SDS011;32338;50.430;6.806;2023-06-26T12:12:05;1.90;;;0.93;;
46613;SDS011;32338;50.430;6.806;2023-06-26T12:14:33;4.78;;;1.13;;
46613;SDS011;32338;50.430;6.806;2023-06-26T12:17:03;4.57;;;1.20;;
46613;SDS011;32338;50.430;6.806;2023-06-26T12:19:36;4.90;;;1.20;;
46613;SDS011;32338;50.430;6.806;2023-06-26T12:22:05;5.57;;;1.45;;
46613;SDS011;32338;50.430;6.806;2023-06-26T12:24:33;2.30;;;1.25;;
46613;SDS011;32338;50.430;6.806;2023-06-26T12:27:02;1.92;;;0.90;;
46613;SDS011;32338;50.430;6.806;2023-06-26T12:29:29;4.18;;;1.00;;
46613;SDS011;32338;50.430;6.806;2023-06-26T12:31:59;5.38;;;1.05;;
46613;SDS011;32338;50.430;6.806;2023-06-26T12:34:27;6.82;;;1.13;;
46613;SDS011;32338;50.430;6.806;2023-06-26T12:36:59;3.90;;;1.00;;
46613;SDS011;32338;50.430;6.806;2023-06-26T12:39:28;3.85;;;1.08;;
46613;SDS011;32338;50.430;6.806;2023-06-26T12:41:57;4.85;;;1.65;;
46613;SDS011;32338;50.430;6.806;2023-06-26T12:44:27;2.22;;;0.90;;
46613;SDS011;32338;50.430;6.806;2023-06-26T12:46:59;2.47;;;0.95;;
46613;SDS011;32338;50.430;6.806;2023-06-26T12:49:30;5.10;;;1.08;;
46613;SDS011;32338;50.430;6.806;2023-06-26T12:52:00;3.60;;;1.20;;
46613;SDS011;32338;50.430;6.806;2023-06-26T12:54:28;7.25;;;1.10;;
46613;SDS011;32338;50.430;6.806;2023-06-26T12:56:55;2.65;;;0.90;;
46613;SDS011;32338;50.430;6.806;2023-06-26T12:59:22;4.43;;;1.10;;
46613;SDS011;32338;50.430;6.806;2023-06-26T13:01:48;1.65;;;0.88;;
46613;SDS011;32338;50.430;6.806;2023-06-26T13:04:15;3.00;;;1.02;;
46613;SDS011;32338;50.430;6.806;2023-06-26T13:06:42;3.50;;;0.90;;
46613;SDS011;32338;50.430;6.806;2023-06-26T13:09:11;3.70;;;0.95;;
46613;SDS011;32338;50.430;6.806;2023-06-26T13:11:40;2.53;;;1.00;;
46613;SDS011;32338;50.430;6.806;2023-06-26T13:14:06;4.22;;;1.35;;
46613;SDS011;32338;50.430;6.806;2023-06-26T13:16:33;3.55;;;1.08;;
46613;SDS011;32338;50.430;6.806;2023-06-26T13:19:00;7.50;;;1.08;;
46613;SDS011;32338;50.430;6.806;2023-06-26T13:21:27;3.60;;;1.20;;
46613;SDS011;32338;50.430;6.806;2023-06-26T13:23:54;4.07;;;1.10;;
46613;SDS011;32338;50.430;6.806;2023-06-26T13:26:23;4.72;;;1.10;;
46613;SDS011;32338;50.430;6.806;2023-06-26T13:28:50;3.38;;;1.00;;
46613;SDS011;32338;50.430;6.806;2023-06-26T13:31:17;10.70;;;1.38;;
46613;SDS011;32338;50.430;6.806;2023-06-26T13:33:44;4.40;;;1.00;;
46613;SDS011;32338;50.430;6.806;2023-06-26T13:36:13;2.58;;;1.00;;
46613;SDS011;32338;50.430;6.806;2023-06-26T13:38:40;2.67;;;1.23;;
46613;SDS011;32338;50.430;6.806;2023-06-26T13:41:07;2.47;;;1.00;;
46613;SDS011;32338;50.430;6.806;2023-06-26T13:43:35;5.97;;;1.38;;
46613;SDS011;32338;50.430;6.806;2023-06-26T13:46:02;4.65;;;1.20;;
46613;SDS011;32338;50.430;6.806;2023-06-26T13:48:29;4.80;;;0.90;;
46613;SDS011;32338;50.430;6.806;2023-06-26T13:50:56;2.33;;;1.25;;
46613;SDS011;32338;50.430;6.806;2023-06-26T13:53:23;3.33;;;0.82;;
46613;SDS011;32338;50.430;6.806;2023-06-26T13:55:50;3.45;;;1.00;;
46613;SDS011;32338;50.430;6.806;2023-06-26T13:58:17;2.08;;;0.90;;
46613;SDS011;32338;50.430;6.806;2023-06-26T14:00:45;4.43;;;0.98;;
46613;SDS011;32338;50.430;6.806;2023-06-26T14:03:12;1.33;;;0.70;;
46613;SDS011;32338;50.430;6.806;2023-06-26T14:05:39;1.55;;;0.80;;
46613;SDS011;32338;50.430;6.806;2023-06-26T14:08:07;1.90;;;0.88;;
46613;SDS011;32338;50.430;6.806;2023-06-26T14:10:35;2.40;;;1.38;;
46613;SDS011;32338;50.430;6.806;2023-06-26T14:13:03;7.10;;;1.00;;
46613;SDS011;32338;50.430;6.806;2023-06-26T14:15:30;4.38;;;1.00;;
46613;SDS011;32338;50.430;6.806;2023-06-26T14:17:58;3.15;;;0.98;;
46613;SDS011;32338;50.430;6.806;2023-06-26T14:20:24;2.58;;;0.90;;
46613;SDS011;32338;50.430;6.806;2023-06-26T14:22:52;2.92;;;0.57;;
46613;SDS011;32338;50.430;6.806;2023-06-26T14:25:19;1.58;;;0.90;;
46613;SDS011;32338;50.430;6.806;2023-06-26T14:27:46;4.85;;;0.70;;
46613;SDS011;32338;50.430;6.806;2023-06-26T14:30:13;5.13;;;1.08;;
46613;SDS011;32338;50.430;6.806;2023-06-26T14:32:40;2.05;;;0.90;;
46613;SDS011;32338;50.430;6.806;2023-06-26T14:35:10;3.67;;;0.90;;
46613;SDS011;32338;50.430;6.806;2023-06-26T14:37:36;4.63;;;0.82;;
46613;SDS011;32338;50.430;6.806;2023-06-26T14:40:05;5.18;;;0.90;;
46613;SDS011;32338;50.430;6.806;2023-06-26T14:42:33;2.80;;;0.98;;
46613;SDS011;32338;50.430;6.806;2023-06-26T14:45:00;3.75;;;1.10;;
46613;SDS011;32338;50.430;6.806;2023-06-26T14:47:27;5.68;;;1.00;;
46613;SDS011;32338;50.430;6.806;2023-06-26T14:49:54;1.90;;;0.90;;
46613;SDS011;32338;50.430;6.806;2023-06-26T14:52:24;2.78;;;0.98;;